Terminal Aerodrome Forecast
Issued by NWS

Home | Current Version | Previous Version | Text Only | Print | Product List | Glossary On
Versions: 1 2 3 4 5 6 7 8 9 10 11 12 13 14 15 16 17 18 19 20 21 22
958
FTUS43 KPAH 262053 AAB
TAFCGI
TAF AMD
KCGI 262053Z 2621/2718 19014G21KT 6SM -SHRA BKN045 OVC100
      TEMPO 2621/2701 2SM TSRA BR BKN015CB
     FM270300 18015G25KT P6SM VCTS OVC025CB
     FM271200 27011KT P6SM BKN015=

USA.gov is the U.S. government's official web portal to all federal, state and local government web resources and services.